Time;durP1;ratioP1;P1;durP2;ratioP2;P2;SDS_P1;SDS_P2;PMS_P1;PMS_P2;Temp;Humidity;BMP_temperature;BMP_pressure;BME280_temperature;BME280_humidity;BME280_pressure;Samples;Min_cycle;Max_cycle;Signal;HPM_P1;HPM_P2
2023/05/10 00:00:15;;;;;;;;;1.00;1.00;;;;;13.73;82.58;99045.50;5115681;28;8840;-58
2023/05/10 00:02:43;;;;;;;;;0.50;0.50;;;;;13.72;82.16;99046.47;5116581;28;8832;-57
2023/05/10 00:05:11;;;;;;;;;1.00;1.00;;;;;13.70;82.08;99043.13;5116617;28;8909;-59
2023/05/10 00:07:39;;;;;;;;;0.00;0.00;;;;;13.70;81.85;99048.47;5116538;28;8828;-57
2023/05/10 00:10:07;;;;;;;;;0.00;0.00;;;;;13.70;82.87;99043.13;5116341;28;8871;-57
2023/05/10 00:12:34;;;;;;;;;0.25;0.25;;;;;13.69;82.72;99045.00;5116445;28;8834;-57
2023/05/10 00:15:02;;;;;;;;;0.50;0.50;;;;;13.69;82.45;99045.00;5116173;28;8828;-57
2023/05/10 00:17:30;;;;;;;;;3.00;3.00;;;;;13.67;81.75;99044.28;5114987;28;8848;-59
2023/05/10 00:19:58;;;;;;;;;0.50;0.50;;;;;13.67;82.14;99043.47;5115118;28;8832;-57
2023/05/10 00:22:26;;;;;;;;;0.50;0.00;;;;;13.66;82.29;99042.63;5117906;28;8839;-59
2023/05/10 00:24:53;;;;;;;;;1.00;1.00;;;;;13.65;82.59;99040.09;5120005;28;8808;-57
2023/05/10 00:27:21;;;;;;;;;1.00;0.25;;;;;13.65;82.62;99042.78;5120029;28;8828;-59
2023/05/10 00:29:48;;;;;;;;;1.00;0.50;;;;;13.62;82.50;99035.94;5120233;28;8840;-59
2023/05/10 00:32:16;;;;;;;;;0.00;0.00;;;;;13.62;82.10;99037.75;5119068;28;8836;-57
2023/05/10 00:34:44;;;;;;;;;2.00;0.75;;;;;13.61;82.33;99036.94;5118588;28;8863;-58
2023/05/10 00:37:12;;;;;;;;;1.00;1.00;;;;;13.60;82.64;99039.78;5119267;28;8843;-56
2023/05/10 00:39:40;;;;;;;;;1.00;1.00;;;;;13.60;82.66;99042.44;5119536;28;8889;-59
2023/05/10 00:42:07;;;;;;;;;1.00;1.00;;;;;13.59;82.30;99043.44;5119891;28;8840;-58
2023/05/10 00:44:35;;;;;;;;;2.50;1.50;;;;;13.58;82.25;99039.94;5119988;28;8844;-59
2023/05/10 00:47:03;;;;;;;;;0.75;0.50;;;;;13.58;83.01;99033.75;5120193;28;8828;-59
2023/05/10 00:49:31;;;;;;;;;0.00;0.00;;;;;13.57;82.90;99038.25;5119871;28;8896;-60
2023/05/10 00:51:58;;;;;;;;;0.75;0.75;;;;;13.56;83.00;99039.25;5118622;28;8820;-57
2023/05/10 00:54:26;;;;;;;;;0.00;0.00;;;;;13.55;82.54;99042.09;5118605;28;8925;-58
2023/05/10 00:56:53;;;;;;;;;0.50;0.50;;;;;13.53;82.45;99041.44;5119488;28;8832;-57
2023/05/10 00:59:21;;;;;;;;;1.00;1.00;;;;;13.52;82.95;99045.09;5119652;28;8820;-57
2023/05/10 01:01:51;;;;;;;;;0.00;0.00;;;;;13.51;82.73;99043.44;5119406;28;8836;-57
2023/05/10 01:04:19;;;;;;;;;1.00;1.00;;;;;13.51;82.42;99044.25;5119697;28;8836;-58
2023/05/10 01:06:47;;;;;;;;;0.75;0.75;;;;;13.50;82.70;99039.06;5119489;28;8832;-58
2023/05/10 01:09:15;;;;;;;;;1.00;0.00;;;;;13.50;82.68;99039.91;5118443;28;8839;-57
2023/05/10 01:11:42;;;;;;;;;1.00;1.00;;;;;13.50;82.81;99037.22;5118760;28;9474;-58
2023/05/10 01:14:10;;;;;;;;;0.00;0.00;;;;;13.51;82.82;99035.41;5119042;28;9610;-57
2023/05/10 01:16:38;;;;;;;;;0.00;0.00;;;;;13.54;82.50;99045.78;5118588;28;8832;-57
2023/05/10 01:19:05;;;;;;;;;0.00;0.00;;;;;13.53;82.25;99039.56;5118187;28;8856;-57
2023/05/10 01:21:33;;;;;;;;;1.00;1.00;;;;;13.53;82.75;99036.06;5118552;28;8812;-58
2023/05/10 01:24:01;;;;;;;;;0.50;0.50;;;;;13.54;83.00;99045.78;5118309;28;8812;-57
2023/05/10 01:26:29;;;;;;;;;1.00;1.00;;;;;13.52;82.65;99040.56;5118115;28;8827;-57
2023/05/10 01:28:56;;;;;;;;;0.50;0.50;;;;;13.51;82.56;99048.78;5117939;28;8890;-59
2023/05/10 01:31:24;;;;;;;;;0.25;0.25;;;;;13.51;82.65;99046.09;5119127;28;8811;-57
2023/05/10 01:33:52;;;;;;;;;3.00;3.00;;;;;13.50;82.58;99052.44;5118768;28;8816;-57
2023/05/10 01:36:25;;;;;;;;;1.25;1.25;;;;;13.51;82.99;99054.13;5118988;28;8819;-59
2023/05/10 01:38:53;;;;;;;;;1.50;1.50;;;;;13.51;82.24;99054.94;5118598;28;8858;-57
2023/05/10 01:41:21;;;;;;;;;3.00;3.00;;;;;13.52;82.37;99058.47;5118849;28;8836;-58
2023/05/10 01:43:48;;;;;;;;;0.00;0.00;;;;;13.53;82.47;99052.13;5119117;28;8855;-57
2023/05/10 01:46:17;;;;;;;;;0.25;0.25;;;;;13.52;82.87;99059.28;5117560;28;8944;-59
2023/05/10 01:48:46;;;;;;;;;1.50;1.50;;;;;13.52;82.52;99063.81;5117601;28;8967;-59
2023/05/10 01:51:14;;;;;;;;;1.00;1.00;;;;;13.50;82.52;99058.63;5117065;28;8823;-57
2023/05/10 01:53:42;;;;;;;;;3.25;1.50;;;;;13.50;82.57;99068.47;5117861;28;8842;-58
2023/05/10 01:56:10;;;;;;;;;2.50;1.00;;;;;13.49;82.73;99061.47;5118220;28;8837;-57
2023/05/10 01:58:38;;;;;;;;;1.00;1.00;;;;;13.48;82.92;99059.78;5118454;28;8827;-59
2023/05/10 02:01:06;;;;;;;;;6.00;4.00;;;;;13.48;82.80;99057.13;5117525;28;8855;-57
2023/05/10 02:03:33;;;;;;;;;4.50;4.50;;;;;13.45;82.77;99058.25;5117165;28;8954;-57
2023/05/10 02:06:01;;;;;;;;;2.00;2.00;;;;;13.46;82.67;99062.66;5117581;28;8820;-57
2023/05/10 02:08:29;;;;;;;;;3.75;3.75;;;;;13.46;82.62;99057.28;5117524;28;8859;-58
2023/05/10 02:10:56;;;;;;;;;4.50;4.00;;;;;13.46;82.59;99056.44;5117168;28;8890;-59
2023/05/10 02:13:24;;;;;;;;;0.25;0.25;;;;;13.46;83.03;99067.16;5117637;28;9544;-57
2023/05/10 02:15:52;;;;;;;;;3.00;2.50;;;;;13.45;82.22;99060.94;5117512;28;8897;-57
2023/05/10 02:18:19;;;;;;;;;3.50;3.50;;;;;13.45;82.71;99060.13;5116833;28;8836;-59
2023/05/10 02:20:47;;;;;;;;;2.50;2.50;;;;;13.45;82.83;99058.25;5117459;28;8823;-58
2023/05/10 02:23:15;;;;;;;;;3.50;3.00;;;;;13.46;82.97;99059.97;5117919;28;8835;-59
2023/05/10 02:25:43;;;;;;;;;3.25;3.00;;;;;13.46;82.54;99062.66;5118289;28;8828;-57
2023/05/10 02:28:10;;;;;;;;;3.00;3.00;;;;;13.45;82.49;99060.94;5118078;28;8820;-57
2023/05/10 02:30:38;;;;;;;;;4.00;3.50;;;;;13.46;82.33;99068.00;5117633;28;9594;-59
2023/05/10 02:33:06;;;;;;;;;4.00;3.75;;;;;13.46;83.00;99073.34;5116640;28;8861;-58
2023/05/10 02:35:34;;;;;;;;;3.00;3.00;;;;;13.46;82.52;99065.31;5117681;28;8844;-57
2023/05/10 02:38:02;;;;;;;;;3.50;3.50;;;;;13.46;82.70;99062.66;5117374;28;8815;-58
2023/05/10 02:40:29;;;;;;;;;3.50;2.75;;;;;13.47;82.95;99069.66;5117640;28;8839;-58
2023/05/10 02:42:57;;;;;;;;;2.50;2.50;;;;;13.48;82.32;99068.66;5117739;28;8836;-59
2023/05/10 02:45:25;;;;;;;;;4.50;3.00;;;;;13.49;83.11;99072.16;5117652;28;9942;-57
2023/05/10 02:47:52;;;;;;;;;3.75;3.75;;;;;13.50;82.59;99072.00;5116258;28;8836;-57
2023/05/10 02:50:20;;;;;;;;;2.50;2.00;;;;;13.50;82.69;99077.34;5116493;28;8820;-57
2023/05/10 02:52:49;;;;;;;;;3.75;3.00;;;;;13.53;82.91;99073.53;5116088;28;8840;-57
2023/05/10 02:55:16;;;;;;;;;4.00;3.25;;;;;13.54;82.34;99075.19;5116341;28;8847;-57
2023/05/10 02:57:44;;;;;;;;;3.00;3.00;;;;;13.57;82.62;99088.22;5116641;28;8840;-57
2023/05/10 03:00:12;;;;;;;;;1.00;0.50;;;;;13.58;82.28;99084.59;5116932;28;8820;-57
2023/05/10 03:02:39;;;;;;;;;2.50;2.50;;;;;13.56;82.41;99079.38;5116768;28;8921;-58
2023/05/10 03:05:07;;;;;;;;;3.00;3.00;;;;;13.52;82.68;99085.22;5116735;28;8865;-57
2023/05/10 03:07:35;;;;;;;;;3.00;1.00;;;;;13.45;82.39;99087.69;5115769;28;8835;-57
2023/05/10 03:10:02;;;;;;;;;0.75;0.75;;;;;13.41;83.15;99090.84;5116149;28;8847;-57
2023/05/10 03:12:30;;;;;;;;;2.50;2.50;;;;;13.37;83.10;99087.66;5115001;28;8844;-58
2023/05/10 03:14:58;;;;;;;;;1.00;1.00;;;;;13.35;83.05;99096.88;5115564;28;8828;-59
2023/05/10 03:17:26;;;;;;;;;0.25;0.25;;;;;13.31;83.00;99092.81;5115579;28;9029;-57
2023/05/10 03:19:54;;;;;;;;;0.00;0.00;;;;;13.27;83.26;99099.47;5115098;28;8986;-58
2023/05/10 03:22:21;;;;;;;;;0.00;0.00;;;;;13.25;82.76;99101.47;5116075;28;8856;-59
2023/05/10 03:24:49;;;;;;;;;1.00;1.00;;;;;13.22;83.38;99102.63;5115329;28;8843;-59
2023/05/10 03:27:17;;;;;;;;;1.00;1.00;;;;;13.21;83.08;99111.66;5116051;28;9552;-58
2023/05/10 03:29:46;;;;;;;;;0.75;0.75;;;;;13.19;83.00;99119.00;5115568;28;8824;-58
2023/05/10 03:32:13;;;;;;;;;1.50;1.50;;;;;13.17;83.34;99109.44;5113629;28;8852;-58
2023/05/10 03:34:41;;;;;;;;;0.25;0.00;;;;;13.16;83.06;99110.44;5115717;28;8828;-59
2023/05/10 03:37:09;;;;;;;;;1.00;1.00;;;;;13.14;83.33;99105.25;5116404;28;8828;-57
2023/05/10 03:39:36;;;;;;;;;0.00;0.00;;;;;13.15;83.59;99111.44;5116212;28;8868;-58
2023/05/10 03:42:04;;;;;;;;;0.00;0.00;;;;;13.13;82.86;99113.44;5115591;28;8864;-59
2023/05/10 03:44:33;;;;;;;;;0.00;0.00;;;;;13.12;83.51;99117.94;5116048;28;8867;-58
2023/05/10 03:47:00;;;;;;;;;1.75;0.00;;;;;13.11;83.62;99116.28;5116114;28;8815;-59
2023/05/10 03:49:28;;;;;;;;;0.50;0.00;;;;;13.13;83.26;99121.47;5115897;28;8812;-59
2023/05/10 03:51:56;;;;;;;;;0.00;0.00;;;;;13.12;83.49;99127.78;5115670;28;8836;-59
2023/05/10 03:54:24;;;;;;;;;0.50;0.00;;;;;13.13;83.32;99119.63;5115745;28;8850;-58
2023/05/10 03:56:51;;;;;;;;;1.00;0.75;;;;;13.13;83.23;99118.81;5117118;28;8816;-58
2023/05/10 03:59:19;;;;;;;;;0.00;0.00;;;;;13.14;83.46;99115.13;5120444;28;8905;-59
2023/05/10 04:01:47;;;;;;;;;0.00;0.00;;;;;13.14;83.35;99126.63;5120216;28;8835;-58
2023/05/10 04:04:15;;;;;;;;;0.00;0.00;;;;;13.15;83.26;99124.81;5120540;28;8840;-59
2023/05/10 04:06:43;;;;;;;;;0.00;0.00;;;;;13.16;82.86;99129.16;5119661;28;8820;-58
2023/05/10 04:09:10;;;;;;;;;0.00;0.00;;;;;13.16;82.69;99129.16;5119346;28;8839;-59
2023/05/10 04:11:38;;;;;;;;;0.25;0.25;;;;;13.17;82.86;99137.03;5119985;28;8831;-57
2023/05/10 04:14:06;;;;;;;;;0.00;0.00;;;;;13.17;82.75;99136.19;5120085;28;8823;-58
2023/05/10 04:16:33;;;;;;;;;0.50;0.50;;;;;13.18;83.10;99138.72;5120471;28;8856;-59
2023/05/10 04:19:01;;;;;;;;;1.50;1.50;;;;;13.19;82.81;99134.19;5120133;28;9602;-58
2023/05/10 04:21:29;;;;;;;;;1.00;0.25;;;;;13.21;82.97;99137.56;5119776;28;8832;-59
2023/05/10 04:23:56;;;;;;;;;3.25;3.00;;;;;13.23;82.44;99136.38;5119247;28;8952;-59
2023/05/10 04:26:25;;;;;;;;;3.00;3.00;;;;;13.27;82.37;99131.56;5119204;28;8843;-58
2023/05/10 04:28:53;;;;;;;;;6.50;5.50;;;;;13.29;82.16;99137.59;5118667;28;8859;-59
2023/05/10 04:31:21;;;;;;;;;7.00;6.00;;;;;13.30;82.47;99133.94;5119131;28;8828;-57
2023/05/10 04:33:49;;;;;;;;;7.50;7.25;;;;;13.32;82.54;99135.44;5119257;28;9830;-58
2023/05/10 04:36:17;;;;;;;;;9.25;7.50;;;;;13.32;82.51;99134.59;5118902;28;8933;-60
2023/05/10 04:38:45;;;;;;;;;4.50;4.50;;;;;13.33;82.53;99131.78;5118769;28;9584;-57
2023/05/10 04:41:13;;;;;;;;;6.00;5.00;;;;;13.35;82.08;99135.13;5119193;28;8858;-56
2023/05/10 04:43:42;;;;;;;;;9.00;8.00;;;;;13.35;82.38;99132.44;5118973;28;8836;-58
2023/05/10 04:46:09;;;;;;;;;7.25;7.25;;;;;13.37;82.56;99138.47;5118869;28;8840;-59
2023/05/10 04:48:37;;;;;;;;;7.00;7.00;;;;;13.38;82.29;99147.34;5119445;28;8835;-58
2023/05/10 04:51:06;;;;;;;;;9.50;9.00;;;;;13.40;82.40;99148.00;5119413;28;8832;-59
2023/05/10 04:53:34;;;;;;;;;8.50;7.50;;;;;13.40;82.61;99150.69;5118713;28;8824;-59
2023/05/10 04:56:01;;;;;;;;;8.00;7.00;;;;;13.40;82.36;99156.03;5118869;28;8836;-59
2023/05/10 04:58:29;;;;;;;;;9.25;7.00;;;;;13.40;82.16;99156.03;5117335;28;8827;-60
2023/05/10 05:00:57;;;;;;;;;6.25;6.25;;;;;13.41;82.19;99161.22;5116359;28;8836;-59
2023/05/10 05:03:24;;;;;;;;;6.50;6.00;;;;;13.41;82.49;99163.06;5117636;28;8831;-59
2023/05/10 05:05:53;;;;;;;;;7.00;6.75;;;;;13.43;82.49;99159.22;5119316;28;8848;-59
2023/05/10 05:08:20;;;;;;;;;11.00;10.00;;;;;13.44;82.42;99163.56;5118344;28;8836;-59
2023/05/10 05:10:49;;;;;;;;;3.25;3.25;;;;;13.47;82.08;99162.44;5118443;28;8925;-59
2023/05/10 05:13:17;;;;;;;;;7.00;6.00;;;;;13.49;81.72;99171.13;5118662;28;8820;-59
2023/05/10 05:15:45;;;;;;;;;6.50;6.50;;;;;13.49;81.85;99171.13;5117351;28;8816;-60
2023/05/10 05:18:13;;;;;;;;;4.50;4.00;;;;;13.47;82.08;99173.13;5118034;28;8913;-58
2023/05/10 05:20:41;;;;;;;;;3.50;3.50;;;;;13.45;82.50;99172.47;5118353;28;8835;-57
2023/05/10 05:23:09;;;;;;;;;3.25;3.25;;;;;13.39;82.40;99173.09;5117989;28;8873;-59
2023/05/10 05:25:36;;;;;;;;;8.50;6.75;;;;;13.29;82.60;99173.19;5117893;28;8916;-59
2023/05/10 05:28:06;;;;;;;;;8.50;8.00;;;;;13.24;83.14;99182.69;5117751;28;8839;-57
2023/05/10 05:30:34;;;;;;;;;7.50;7.00;;;;;13.21;83.01;99175.00;5117683;28;8827;-59
2023/05/10 05:33:01;;;;;;;;;8.75;6.75;;;;;13.19;83.20;99187.66;5117515;28;8843;-59
2023/05/10 05:35:29;;;;;;;;;6.00;6.00;;;;;13.19;83.53;99190.31;5117570;28;8848;-59
2023/05/10 05:37:57;;;;;;;;;8.00;8.00;;;;;13.19;83.52;99183.16;5117330;28;8840;-59
2023/05/10 05:40:24;;;;;;;;;8.00;7.50;;;;;13.24;83.07;99190.72;5116857;28;8827;-59
2023/05/10 05:42:53;;;;;;;;;5.50;4.50;;;;;13.27;83.13;99195.72;5116859;28;8832;-57
2023/05/10 05:45:20;;;;;;;;;7.50;5.25;;;;;13.30;83.29;99190.91;5117454;28;8921;-59
2023/05/10 05:47:48;;;;;;;;;10.75;7.75;;;;;13.32;82.83;99188.09;5115729;28;8913;-57
2023/05/10 05:50:16;;;;;;;;;12.25;11.75;;;;;13.39;82.63;99183.78;5114846;28;8833;-59
2023/05/10 05:52:44;;;;;;;;;14.50;12.75;;;;;13.45;82.69;99185.81;5114811;28;8828;-59
2023/05/10 05:55:12;;;;;;;;;10.50;10.50;;;;;13.51;82.25;99183.34;5115260;28;9590;-58
2023/05/10 05:57:40;;;;;;;;;8.50;7.25;;;;;13.59;82.20;99194.09;5114770;28;8871;-56
2023/05/10 06:00:08;;;;;;;;;4.50;4.50;;;;;13.63;82.10;99194.59;5114856;28;8843;-59
2023/05/10 06:02:36;;;;;;;;;11.00;7.50;;;;;13.63;82.43;99191.94;5114630;28;8835;-59
2023/05/10 06:05:04;;;;;;;;;8.50;8.00;;;;;13.65;81.97;99190.78;5114557;28;8836;-59
2023/05/10 06:07:32;;;;;;;;;15.00;13.00;;;;;13.70;82.29;99193.81;5114992;28;8848;-58
2023/05/10 06:10:00;;;;;;;;;17.25;14.50;;;;;13.76;81.76;99208.41;5114287;28;8832;-59
2023/05/10 06:12:28;;;;;;;;;9.00;7.00;;;;;13.80;81.63;99210.59;5113963;28;9789;-58
2023/05/10 06:14:56;;;;;;;;;16.50;14.00;;;;;13.85;81.96;99208.28;5114286;28;8835;-59
2023/05/10 06:17:24;;;;;;;;;13.00;9.25;;;;;13.89;82.04;99217.66;5114361;28;8920;-58
2023/05/10 06:19:53;;;;;;;;;11.50;10.75;;;;;13.93;81.75;99211.00;5114146;28;8958;-58
2023/05/10 06:22:22;;;;;;;;;9.25;9.00;;;;;13.97;81.85;99216.88;5115596;28;8832;-59
2023/05/10 06:24:50;;;;;;;;;15.25;8.50;;;;;14.01;81.30;99213.69;5116141;28;8836;-58
2023/05/10 06:27:17;;;;;;;;;15.00;12.50;;;;;14.08;81.58;99221.91;5116091;28;8855;-59
2023/05/10 06:29:45;;;;;;;;;11.00;9.75;;;;;14.12;81.52;99225.97;5116107;28;8842;-59
2023/05/10 06:32:14;;;;;;;;;16.50;13.25;;;;;14.16;81.03;99235.31;5115524;28;8828;-59
2023/05/10 06:34:43;;;;;;;;;14.00;12.25;;;;;14.18;80.93;99238.75;5115682;28;8852;-59
2023/05/10 06:37:10;;;;;;;;;12.50;6.75;;;;;14.19;81.01;99230.53;5116158;28;8848;-59
2023/05/10 06:39:38;;;;;;;;;15.50;13.75;;;;;14.25;81.49;99229.03;5115527;28;8834;-58
2023/05/10 06:42:06;;;;;;;;;12.00;10.50;;;;;14.31;81.41;99231.06;5115128;28;8961;-58
2023/05/10 06:44:34;;;;;;;;;16.50;12.25;;;;;14.37;81.28;99230.41;5116047;28;8824;-57
2023/05/10 06:47:02;;;;;;;;;13.00;10.50;;;;;14.42;80.63;99236.13;5115214;28;8965;-56
2023/05/10 06:49:29;;;;;;;;;1.50;0.25;;;;;14.44;80.38;99231.44;5114933;28;8928;-59
2023/05/10 06:51:57;;;;;;;;;15.75;13.00;;;;;14.47;81.01;99236.47;5115210;28;8832;-57
2023/05/10 06:54:26;;;;;;;;;16.75;14.00;;;;;14.48;80.91;99224.78;5114914;28;8835;-57
2023/05/10 06:56:54;;;;;;;;;13.50;12.50;;;;;14.50;81.13;99236.97;5114940;28;8850;-58
2023/05/10 06:59:22;;;;;;;;;13.50;9.00;;;;;14.54;80.88;99249.06;5114713;28;8836;-57
2023/05/10 07:01:50;;;;;;;;;19.00;16.00;;;;;14.54;80.66;99249.06;5115066;28;8832;-59
2023/05/10 07:04:19;;;;;;;;;18.25;14.50;;;;;14.56;80.73;99251.56;5115447;28;8856;-59
2023/05/10 07:06:49;;;;;;;;;15.25;12.50;;;;;14.59;80.37;99253.91;5115712;28;9486;-57
2023/05/10 07:09:17;;;;;;;;;11.00;8.75;;;;;14.65;80.91;99255.94;5115605;28;8850;-57
2023/05/10 07:11:45;;;;;;;;;12.75;11.00;;;;;14.78;80.02;99246.41;5115385;28;8913;-59
2023/05/10 07:14:12;;;;;;;;;22.00;20.50;;;;;14.93;80.26;99251.94;5115754;28;8847;-57
2023/05/10 07:16:41;;;;;;;;;14.00;11.25;;;;;15.04;79.51;99257.84;5115272;28;8819;-57
2023/05/10 07:19:09;;;;;;;;;21.25;17.50;;;;;15.19;79.78;99252.66;5115345;28;8908;-58
2023/05/10 07:21:37;;;;;;;;;19.00;18.00;;;;;15.35;79.09;99255.34;5115208;28;8885;-57
2023/05/10 07:24:05;;;;;;;;;16.50;15.00;;;;;15.47;79.21;99254.00;5115029;28;8839;-58
2023/05/10 07:26:33;;;;;;;;;15.75;15.00;;;;;15.51;78.39;99256.19;5115245;28;8828;-59
2023/05/10 07:29:00;;;;;;;;;21.50;15.25;;;;;15.58;78.48;99264.38;5115476;28;8878;-57
2023/05/10 07:31:28;;;;;;;;;19.25;17.00;;;;;15.60;78.37;99259.66;5115624;28;8844;-57
2023/05/10 07:33:57;;;;;;;;;19.25;16.00;;;;;15.58;78.88;99262.56;5116007;28;8860;-57
2023/05/10 07:36:24;;;;;;;;;14.00;11.50;;;;;15.56;78.54;99258.34;5115372;28;8836;-60
2023/05/10 07:38:53;;;;;;;;;19.50;18.50;;;;;15.60;79.10;99255.16;5115670;28;9517;-57
2023/05/10 07:41:22;;;;;;;;;22.25;19.00;;;;;15.69;78.75;99254.13;5115182;28;9551;-58
2023/05/10 07:43:50;;;;;;;;;13.50;13.25;;;;;15.77;78.49;99255.97;5115902;28;8993;-57
2023/05/10 07:46:19;;;;;;;;;16.50;13.75;;;;;15.81;78.31;99258.13;5115376;28;8859;-58
2023/05/10 07:48:47;;;;;;;;;13.00;10.00;;;;;15.85;78.07;99254.09;5115068;28;8816;-60
2023/05/10 07:51:14;;;;;;;;;18.50;15.75;;;;;15.93;77.93;99255.91;5115314;28;8824;-60
2023/05/10 07:53:42;;;;;;;;;19.25;15.50;;;;;16.07;78.24;99256.03;5114802;28;8840;-60
2023/05/10 07:56:10;;;;;;;;;16.25;14.75;;;;;16.19;77.55;99254.66;5114310;28;8854;-60
2023/05/10 07:58:39;;;;;;;;;18.25;17.00;;;;;16.23;77.40;99256.81;5114292;28;9019;-58
2023/05/10 08:01:07;;;;;;;;;13.00;13.00;;;;;16.24;77.78;99257.63;5112905;28;8847;-59
2023/05/10 08:03:35;;;;;;;;;21.00;19.50;;;;;16.30;77.88;99255.09;5112684;28;8847;-59
2023/05/10 08:06:03;;;;;;;;;13.00;12.75;;;;;16.40;76.93;99253.06;5113037;28;8970;-60
2023/05/10 08:08:31;;;;;;;;;15.00;12.75;;;;;16.43;77.07;99260.78;5112481;28;8920;-60
2023/05/10 08:10:59;;;;;;;;;15.50;14.50;;;;;16.51;77.24;99262.59;5112743;28;8962;-60
2023/05/10 08:13:27;;;;;;;;;16.00;12.80;;;;;16.50;77.41;99264.44;5112984;28;8855;-59
2023/05/10 08:15:55;;;;;;;;;15.20;12.80;;;;;16.48;77.40;99257.56;5113439;28;8950;-59
2023/05/10 08:18:23;;;;;;;;;14.50;14.50;;;;;16.49;77.31;99261.94;5113615;28;8843;-60
2023/05/10 08:20:51;;;;;;;;;12.20;9.00;;;;;16.56;76.80;99263.72;5112925;28;8836;-60
2023/05/10 08:23:20;;;;;;;;;19.60;16.60;;;;;16.58;77.30;99264.41;5112579;28;8843;-59
2023/05/10 08:25:48;;;;;;;;;12.60;12.60;;;;;16.49;77.39;99270.81;5112966;28;8816;-58
2023/05/10 08:28:16;;;;;;;;;16.40;13.00;;;;;16.35;77.51;99274.22;5113417;28;8840;-60
2023/05/10 08:30:44;;;;;;;;;18.25;15.75;;;;;16.19;78.47;99276.97;5113145;28;8828;-59
2023/05/10 08:33:12;;;;;;;;;12.00;10.00;;;;;16.09;78.59;99280.03;5113334;28;8851;-59
2023/05/10 08:35:41;;;;;;;;;14.80;13.60;;;;;16.03;78.78;99284.25;5113457;28;8855;-60
2023/05/10 08:38:08;;;;;;;;;15.50;12.25;;;;;15.98;78.19;99286.63;5114162;28;8843;-57
2023/05/10 08:40:37;;;;;;;;;11.25;9.75;;;;;15.88;78.52;99293.19;5113948;28;8827;-59
2023/05/10 08:43:05;;;;;;;;;9.75;9.50;;;;;15.82;79.12;99292.03;5114827;28;8835;-59
2023/05/10 08:45:34;;;;;;;;;13.00;13.00;;;;;15.84;78.92;99298.06;5119011;28;8856;-58
2023/05/10 08:48:02;;;;;;;;;6.75;6.00;;;;;16.09;78.87;99293.47;5117997;28;8839;-59
2023/05/10 08:50:30;;;;;;;;;9.75;9.00;;;;;16.50;77.77;99294.00;5117513;28;8827;-59
2023/05/10 08:52:58;;;;;;;;;4.00;3.60;;;;;16.93;76.75;99290.72;5117634;28;8846;-58
2023/05/10 08:55:26;;;;;;;;;15.00;14.60;;;;;17.09;76.10;99300.56;5117606;28;8909;-58
2023/05/10 08:57:54;;;;;;;;;12.60;9.60;;;;;17.16;76.03;99299.66;5117035;28;8840;-58
2023/05/10 09:00:22;;;;;;;;;8.60;7.40;;;;;17.27;75.74;99295.72;5117413;28;8828;-60
2023/05/10 09:02:50;;;;;;;;;9.00;9.00;;;;;17.47;74.93;99295.06;5117521;28;8893;-59
2023/05/10 09:05:18;;;;;;;;;9.00;7.00;;;;;17.57;74.89;99301.06;5117332;28;8878;-61
2023/05/10 09:07:46;;;;;;;;;10.00;10.00;;;;;17.60;75.02;99302.56;5117280;28;8854;-59
2023/05/10 09:10:14;;;;;;;;;10.40;9.00;;;;;17.73;74.74;99303.59;5117654;28;8836;-61
2023/05/10 09:12:43;;;;;;;;;8.60;8.40;;;;;17.75;74.84;99304.22;5117272;28;8850;-60
2023/05/10 09:15:11;;;;;;;;;6.20;6.00;;;;;17.71;74.69;99299.41;5117115;28;8944;-60
2023/05/10 09:17:39;;;;;;;;;12.00;10.80;;;;;17.87;74.36;99308.16;5116981;28;8827;-61
2023/05/10 09:20:07;;;;;;;;;5.60;5.60;;;;;18.09;74.31;99306.41;5117007;28;8824;-58
2023/05/10 09:22:35;;;;;;;;;10.00;8.20;;;;;18.27;73.36;99298.78;5117030;28;8839;-61
2023/05/10 09:25:03;;;;;;;;;11.20;9.20;;;;;18.36;73.72;99303.94;5117344;28;8827;-60
2023/05/10 09:27:31;;;;;;;;;7.80;6.80;;;;;18.39;73.21;99306.28;5117579;28;9481;-61
2023/05/10 09:29:59;;;;;;;;;11.00;10.00;;;;;18.34;73.80;99306.00;5117962;28;8890;-59
2023/05/10 09:32:27;;;;;;;;;11.20;9.40;;;;;18.32;73.49;99301.81;5118045;28;9561;-59
2023/05/10 09:34:55;;;;;;;;;6.40;6.40;;;;;18.55;73.21;99299.81;5117850;28;8832;-58
2023/05/10 09:37:23;;;;;;;;;9.20;7.80;;;;;18.87;72.50;99300.25;5117954;28;8843;-59
2023/05/10 09:39:51;;;;;;;;;6.40;6.00;;;;;19.05;71.59;99303.34;5117121;28;8882;-59
2023/05/10 09:42:19;;;;;;;;;7.60;5.60;;;;;19.05;71.70;99308.72;5117211;28;8824;-60
2023/05/10 09:44:47;;;;;;;;;10.40;9.00;;;;;19.10;71.81;99306.31;5118295;28;8950;-58
2023/05/10 09:47:16;;;;;;;;;6.20;6.20;;;;;19.37;71.42;99302.88;5117352;28;8970;-59
2023/05/10 09:49:44;;;;;;;;;4.20;4.00;;;;;19.86;70.26;99305.59;5117218;28;8835;-60
2023/05/10 09:52:12;;;;;;;;;6.80;6.80;;;;;20.47;68.97;99305.59;5116630;28;8979;-59
2023/05/10 09:54:40;;;;;;;;;6.40;5.20;;;;;20.97;68.26;99308.75;5115626;28;8839;-59
2023/05/10 09:57:08;;;;;;;;;5.20;4.40;;;;;21.00;68.05;99310.22;5116261;28;8973;-59
2023/05/10 09:59:36;;;;;;;;;7.20;6.00;;;;;21.25;67.97;99311.34;5115840;28;8859;-61
2023/05/10 10:02:04;;;;;;;;;10.00;10.00;;;;;21.33;67.90;99305.75;5114962;28;8839;-58
2023/05/10 10:04:32;;;;;;;;;6.40;5.40;;;;;21.08;68.06;99310.88;5114582;28;8859;-58
2023/05/10 10:07:01;;;;;;;;;6.20;6.20;;;;;20.59;68.90;99309.41;5114384;28;8978;-59
2023/05/10 10:09:29;;;;;;;;;7.40;6.20;;;;;20.15;70.05;99322.47;5114498;28;8940;-59
2023/05/10 10:11:58;;;;;;;;;7.80;7.00;;;;;19.78;71.07;99314.66;5115140;28;9594;-59
2023/05/10 10:14:27;;;;;;;;;7.60;4.80;;;;;19.51;71.92;99322.75;5115518;28;8924;-62
2023/05/10 10:16:55;;;;;;;;;6.40;5.20;;;;;19.44;72.01;99325.41;5115620;28;8865;-58
2023/05/10 10:19:35;;;;;;;;;7.60;6.20;;;;;19.92;70.64;99315.59;5115603;28;8831;-58
2023/05/10 10:22:04;;;;;;;;;6.80;5.40;;;;;20.81;68.92;99309.09;5115660;28;8854;-61
2023/05/10 10:24:32;;;;;;;;;4.40;2.00;;;;;21.08;68.65;99315.44;5116048;28;8840;-60
2023/05/10 10:27:02;;;;;;;;;4.60;4.00;;;;;21.55;67.45;99316.19;5115341;28;8938;-59
2023/05/10 10:29:30;;;;;;;;;4.80;4.20;;;;;22.33;65.88;99307.19;5115201;28;8847;-59
2023/05/10 10:31:58;;;;;;;;;5.00;4.20;;;;;22.49;65.46;99302.19;5115114;28;8914;-59
2023/05/10 10:34:26;;;;;;;;;2.00;2.00;;;;;22.21;65.67;99317.88;5114551;28;8843;-59
2023/05/10 10:36:54;;;;;;;;;7.40;6.00;;;;;22.03;65.87;99314.94;5114939;28;8853;-59
2023/05/10 10:39:22;;;;;;;;;6.20;5.00;;;;;21.85;66.56;99308.53;5115209;28;8831;-59
2023/05/10 10:41:50;;;;;;;;;5.60;5.40;;;;;21.87;66.58;99309.16;5114882;28;8840;-59
2023/05/10 10:44:18;;;;;;;;;7.20;5.60;;;;;21.84;66.93;99313.09;5115379;28;8836;-58
2023/05/10 10:46:45;;;;;;;;;5.20;5.00;;;;;21.65;67.02;99308.50;5115782;28;8836;-59
2023/05/10 10:49:14;;;;;;;;;6.60;5.00;;;;;21.27;67.58;99322.81;5115615;28;8970;-59
2023/05/10 10:51:42;;;;;;;;;10.00;7.60;;;;;20.94;68.87;99324.56;5115477;28;8832;-59
2023/05/10 10:54:09;;;;;;;;;6.20;5.00;;;;;20.61;68.84;99323.56;5114926;28;8828;-58
2023/05/10 10:56:38;;;;;;;;;5.00;5.00;;;;;20.22;69.78;99331.47;5115251;28;8835;-58
2023/05/10 10:59:06;;;;;;;;;7.20;7.20;;;;;19.64;70.62;99342.59;5115176;28;8830;-58
2023/05/10 11:01:34;;;;;;;;;9.60;5.80;;;;;18.97;72.16;99345.81;5114686;28;8836;-58
2023/05/10 11:04:02;;;;;;;;;9.20;8.40;;;;;18.22;73.89;99350.56;5114327;28;8894;-58
2023/05/10 11:06:31;;;;;;;;;7.40;7.40;;;;;17.67;75.44;99355.47;5114050;28;8925;-59
2023/05/10 11:08:59;;;;;;;;;3.00;3.00;;;;;17.21;76.51;99351.09;5113975;28;8977;-58
2023/05/10 11:11:27;;;;;;;;;6.20;6.20;;;;;16.91;77.20;99351.94;5114468;28;8925;-59
2023/05/10 11:13:56;;;;;;;;;7.80;6.40;;;;;16.76;77.76;99363.63;5113449;28;8820;-58
2023/05/10 11:16:24;;;;;;;;;7.00;7.00;;;;;16.69;78.01;99355.41;5113464;28;8848;-58
2023/05/10 11:18:52;;;;;;;;;5.20;4.40;;;;;16.77;77.29;99352.69;5113819;28;9502;-58
2023/05/10 11:21:21;;;;;;;;;6.80;6.60;;;;;17.19;76.49;99353.13;5114051;28;8828;-60
2023/05/10 11:23:49;;;;;;;;;6.60;5.60;;;;;17.72;75.30;99363.03;5113572;28;8950;-57
2023/05/10 11:26:17;;;;;;;;;8.80;6.00;;;;;17.90;74.57;99361.69;5113145;28;8844;-58
2023/05/10 11:28:45;;;;;;;;;10.40;9.00;;;;;17.76;74.68;99370.56;5113035;28;8948;-59
2023/05/10 11:31:13;;;;;;;;;10.00;9.60;;;;;17.56;75.07;99369.41;5113727;28;8926;-59
2023/05/10 11:33:41;;;;;;;;;10.00;10.00;;;;;17.31;75.69;99380.47;5113191;28;8881;-60
2023/05/10 11:36:09;;;;;;;;;9.40;9.40;;;;;17.02;75.78;99377.63;5113494;28;8862;-58
2023/05/10 11:38:38;;;;;;;;;15.20;12.20;;;;;16.70;76.63;99386.66;5112785;28;8843;-56